sensor_id;sensor_type;location;lat;lon;timestamp;P1;durP1;ratioP1;P2;durP2;ratioP2
55330;SDS011;58851;42.984;20.336;2022-08-20T00:00:27;34.05;;;16.45;;
55330;SDS011;58851;42.984;20.336;2022-08-20T00:02:57;45.05;;;19.13;;
55330;SDS011;58851;42.984;20.336;2022-08-20T00:05:28;38.22;;;18.35;;
55330;SDS011;58851;42.984;20.336;2022-08-20T00:08:06;46.15;;;20.10;;
55330;SDS011;58851;42.984;20.336;2022-08-20T00:10:33;49.40;;;20.15;;
55330;SDS011;58851;42.984;20.336;2022-08-20T00:13:01;43.22;;;18.67;;
55330;SDS011;58851;42.984;20.336;2022-08-20T00:15:30;43.40;;;19.13;;
55330;SDS011;58851;42.984;20.336;2022-08-20T00:17:57;44.78;;;20.85;;
55330;SDS011;58851;42.984;20.336;2022-08-20T00:20:25;48.95;;;18.63;;
55330;SDS011;58851;42.984;20.336;2022-08-20T00:22:53;33.20;;;15.80;;
55330;SDS011;58851;42.984;20.336;2022-08-20T00:25:21;42.25;;;16.85;;
55330;SDS011;58851;42.984;20.336;2022-08-20T00:27:47;36.15;;;16.80;;
55330;SDS011;58851;42.984;20.336;2022-08-20T00:30:13;35.25;;;14.70;;
55330;SDS011;58851;42.984;20.336;2022-08-20T00:32:44;36.00;;;15.35;;
55330;SDS011;58851;42.984;20.336;2022-08-20T00:35:13;36.92;;;15.70;;
55330;SDS011;58851;42.984;20.336;2022-08-20T00:37:41;33.35;;;16.75;;
55330;SDS011;58851;42.984;20.336;2022-08-20T00:40:08;37.30;;;15.93;;
55330;SDS011;58851;42.984;20.336;2022-08-20T00:42:39;40.00;;;17.33;;
55330;SDS011;58851;42.984;20.336;2022-08-20T00:45:15;39.97;;;16.25;;
55330;SDS011;58851;42.984;20.336;2022-08-20T00:47:42;36.47;;;15.98;;
55330;SDS011;58851;42.984;20.336;2022-08-20T00:50:09;36.50;;;15.85;;
55330;SDS011;58851;42.984;20.336;2022-08-20T00:52:38;36.67;;;15.52;;
55330;SDS011;58851;42.984;20.336;2022-08-20T00:55:06;29.95;;;15.18;;
55330;SDS011;58851;42.984;20.336;2022-08-20T00:57:37;31.60;;;15.70;;
55330;SDS011;58851;42.984;20.336;2022-08-20T01:00:09;32.25;;;13.68;;
55330;SDS011;58851;42.984;20.336;2022-08-20T01:02:39;41.53;;;15.32;;
55330;SDS011;58851;42.984;20.336;2022-08-20T01:05:07;30.33;;;14.70;;
55330;SDS011;58851;42.984;20.336;2022-08-20T01:07:34;31.90;;;13.85;;
55330;SDS011;58851;42.984;20.336;2022-08-20T01:10:02;38.17;;;15.38;;
55330;SDS011;58851;42.984;20.336;2022-08-20T01:12:38;37.25;;;14.45;;
55330;SDS011;58851;42.984;20.336;2022-08-20T01:15:07;31.90;;;13.57;;
55330;SDS011;58851;42.984;20.336;2022-08-20T01:17:38;37.40;;;14.18;;
55330;SDS011;58851;42.984;20.336;2022-08-20T01:20:11;38.60;;;14.90;;
55330;SDS011;58851;42.984;20.336;2022-08-20T01:28:10;36.38;;;15.35;;
55330;SDS011;58851;42.984;20.336;2022-08-20T01:30:39;39.30;;;14.02;;
55330;SDS011;58851;42.984;20.336;2022-08-20T01:33:06;32.95;;;15.40;;
55330;SDS011;58851;42.984;20.336;2022-08-20T01:35:36;33.33;;;15.75;;
55330;SDS011;58851;42.984;20.336;2022-08-20T01:38:04;41.22;;;16.38;;
55330;SDS011;58851;42.984;20.336;2022-08-20T01:43:31;29.02;;;13.63;;
55330;SDS011;58851;42.984;20.336;2022-08-20T01:45:57;32.47;;;14.68;;
55330;SDS011;58851;42.984;20.336;2022-08-20T01:48:23;31.90;;;15.88;;
55330;SDS011;58851;42.984;20.336;2022-08-20T01:51:01;34.22;;;14.95;;
55330;SDS011;58851;42.984;20.336;2022-08-20T01:53:37;36.15;;;14.20;;
55330;SDS011;58851;42.984;20.336;2022-08-20T01:56:07;32.63;;;13.85;;
55330;SDS011;58851;42.984;20.336;2022-08-20T01:58:37;40.65;;;15.85;;
55330;SDS011;58851;42.984;20.336;2022-08-20T02:01:06;36.72;;;16.58;;
55330;SDS011;58851;42.984;20.336;2022-08-20T02:03:32;49.17;;;16.98;;
55330;SDS011;58851;42.984;20.336;2022-08-20T02:05:58;43.63;;;17.92;;
55330;SDS011;58851;42.984;20.336;2022-08-20T02:08:25;44.88;;;19.42;;
55330;SDS011;58851;42.984;20.336;2022-08-20T02:10:51;53.80;;;23.40;;
55330;SDS011;58851;42.984;20.336;2022-08-20T02:13:19;56.60;;;23.60;;
55330;SDS011;58851;42.984;20.336;2022-08-20T02:15:46;40.35;;;19.90;;
55330;SDS011;58851;42.984;20.336;2022-08-20T02:18:12;44.72;;;18.27;;
55330;SDS011;58851;42.984;20.336;2022-08-20T02:20:39;36.53;;;15.50;;
55330;SDS011;58851;42.984;20.336;2022-08-20T02:23:07;44.83;;;18.98;;
55330;SDS011;58851;42.984;20.336;2022-08-20T02:25:36;39.85;;;19.30;;
55330;SDS011;58851;42.984;20.336;2022-08-20T02:28:05;30.17;;;14.77;;
55330;SDS011;58851;42.984;20.336;2022-08-20T02:30:34;33.15;;;17.83;;
55330;SDS011;58851;42.984;20.336;2022-08-20T02:33:04;39.88;;;14.30;;
55330;SDS011;58851;42.984;20.336;2022-08-20T02:35:33;33.80;;;14.32;;
55330;SDS011;58851;42.984;20.336;2022-08-20T02:38:00;26.35;;;13.93;;
55330;SDS011;58851;42.984;20.336;2022-08-20T02:40:27;36.83;;;14.15;;
55330;SDS011;58851;42.984;20.336;2022-08-20T02:42:54;29.98;;;15.02;;
55330;SDS011;58851;42.984;20.336;2022-08-20T02:45:20;42.33;;;15.00;;
55330;SDS011;58851;42.984;20.336;2022-08-20T02:47:47;33.10;;;15.77;;
55330;SDS011;58851;42.984;20.336;2022-08-20T02:50:16;26.02;;;13.85;;
55330;SDS011;58851;42.984;20.336;2022-08-20T02:52:44;33.92;;;13.68;;
55330;SDS011;58851;42.984;20.336;2022-08-20T02:55:10;26.33;;;14.00;;
55330;SDS011;58851;42.984;20.336;2022-08-20T02:57:37;33.65;;;14.43;;
55330;SDS011;58851;42.984;20.336;2022-08-20T03:00:05;31.38;;;12.82;;
55330;SDS011;58851;42.984;20.336;2022-08-20T03:02:42;25.85;;;12.40;;
55330;SDS011;58851;42.984;20.336;2022-08-20T03:05:09;25.00;;;13.10;;
55330;SDS011;58851;42.984;20.336;2022-08-20T03:07:43;29.98;;;14.68;;
55330;SDS011;58851;42.984;20.336;2022-08-20T03:10:13;37.05;;;15.88;;
55330;SDS011;58851;42.984;20.336;2022-08-20T03:12:40;29.98;;;15.20;;
55330;SDS011;58851;42.984;20.336;2022-08-20T03:15:07;32.72;;;15.77;;
55330;SDS011;58851;42.984;20.336;2022-08-20T03:17:35;36.50;;;15.60;;
55330;SDS011;58851;42.984;20.336;2022-08-20T03:20:04;34.45;;;17.20;;
55330;SDS011;58851;42.984;20.336;2022-08-20T03:22:31;33.60;;;16.33;;
55330;SDS011;58851;42.984;20.336;2022-08-20T03:24:57;27.73;;;14.55;;
55330;SDS011;58851;42.984;20.336;2022-08-20T03:27:23;32.90;;;16.95;;
55330;SDS011;58851;42.984;20.336;2022-08-20T03:29:49;25.05;;;14.60;;
55330;SDS011;58851;42.984;20.336;2022-08-20T03:32:15;28.55;;;15.57;;
55330;SDS011;58851;42.984;20.336;2022-08-20T03:34:41;27.08;;;14.10;;
55330;SDS011;58851;42.984;20.336;2022-08-20T03:37:07;32.55;;;15.93;;
55330;SDS011;58851;42.984;20.336;2022-08-20T03:39:33;29.63;;;14.45;;
55330;SDS011;58851;42.984;20.336;2022-08-20T03:41:58;28.65;;;14.75;;
55330;SDS011;58851;42.984;20.336;2022-08-20T03:44:24;27.55;;;14.85;;
55330;SDS011;58851;42.984;20.336;2022-08-20T03:46:50;33.58;;;15.00;;
55330;SDS011;58851;42.984;20.336;2022-08-20T03:49:16;31.17;;;17.23;;
55330;SDS011;58851;42.984;20.336;2022-08-20T03:51:42;27.35;;;14.88;;
55330;SDS011;58851;42.984;20.336;2022-08-20T03:54:08;27.98;;;15.02;;
55330;SDS011;58851;42.984;20.336;2022-08-20T03:56:33;31.10;;;17.15;;
55330;SDS011;58851;42.984;20.336;2022-08-20T03:58:59;31.35;;;16.30;;
55330;SDS011;58851;42.984;20.336;2022-08-20T04:01:25;32.92;;;15.55;;
55330;SDS011;58851;42.984;20.336;2022-08-20T04:03:51;25.02;;;13.77;;
55330;SDS011;58851;42.984;20.336;2022-08-20T04:06:16;30.67;;;13.70;;
55330;SDS011;58851;42.984;20.336;2022-08-20T04:08:42;29.17;;;15.18;;
55330;SDS011;58851;42.984;20.336;2022-08-20T04:11:08;35.10;;;16.92;;
55330;SDS011;58851;42.984;20.336;2022-08-20T04:13:34;38.03;;;17.10;;
55330;SDS011;58851;42.984;20.336;2022-08-20T04:16:01;29.27;;;14.73;;
55330;SDS011;58851;42.984;20.336;2022-08-20T04:18:28;28.40;;;15.18;;
55330;SDS011;58851;42.984;20.336;2022-08-20T04:20:54;30.60;;;14.48;;
55330;SDS011;58851;42.984;20.336;2022-08-20T04:23:20;30.17;;;13.65;;
55330;SDS011;58851;42.984;20.336;2022-08-20T04:25:46;31.92;;;15.82;;
55330;SDS011;58851;42.984;20.336;2022-08-20T04:28:14;38.30;;;15.70;;
55330;SDS011;58851;42.984;20.336;2022-08-20T04:30:48;29.58;;;15.45;;
55330;SDS011;58851;42.984;20.336;2022-08-20T04:33:16;31.77;;;15.32;;
55330;SDS011;58851;42.984;20.336;2022-08-20T04:35:43;36.40;;;16.42;;
55330;SDS011;58851;42.984;20.336;2022-08-20T04:38:10;32.65;;;15.07;;
55330;SDS011;58851;42.984;20.336;2022-08-20T04:40:39;27.83;;;14.38;;
55330;SDS011;58851;42.984;20.336;2022-08-20T04:46:06;32.85;;;16.25;;
55330;SDS011;58851;42.984;20.336;2022-08-20T04:48:36;49.67;;;18.13;;
55330;SDS011;58851;42.984;20.336;2022-08-20T04:51:03;31.60;;;14.80;;
55330;SDS011;58851;42.984;20.336;2022-08-20T04:53:30;33.85;;;16.40;;
55330;SDS011;58851;42.984;20.336;2022-08-20T04:55:57;38.80;;;17.92;;
55330;SDS011;58851;42.984;20.336;2022-08-20T04:58:25;28.60;;;15.60;;
55330;SDS011;58851;42.984;20.336;2022-08-20T05:01:04;28.23;;;15.02;;
55330;SDS011;58851;42.984;20.336;2022-08-20T05:03:38;31.17;;;13.77;;
55330;SDS011;58851;42.984;20.336;2022-08-20T05:06:05;23.27;;;12.93;;
55330;SDS011;58851;42.984;20.336;2022-08-20T05:08:33;26.50;;;14.98;;
55330;SDS011;58851;42.984;20.336;2022-08-20T05:10:59;22.98;;;12.70;;
55330;SDS011;58851;42.984;20.336;2022-08-20T05:13:26;26.15;;;14.13;;
55330;SDS011;58851;42.984;20.336;2022-08-20T05:15:52;25.67;;;13.60;;
55330;SDS011;58851;42.984;20.336;2022-08-20T05:18:19;28.05;;;14.45;;
55330;SDS011;58851;42.984;20.336;2022-08-20T05:20:47;20.23;;;12.48;;
55330;SDS011;58851;42.984;20.336;2022-08-20T05:23:14;22.77;;;13.38;;
55330;SDS011;58851;42.984;20.336;2022-08-20T05:25:41;25.35;;;13.30;;
55330;SDS011;58851;42.984;20.336;2022-08-20T05:28:09;24.23;;;13.63;;
55330;SDS011;58851;42.984;20.336;2022-08-20T05:30:41;25.15;;;13.68;;
55330;SDS011;58851;42.984;20.336;2022-08-20T05:33:10;23.23;;;13.85;;
55330;SDS011;58851;42.984;20.336;2022-08-20T05:35:38;24.23;;;12.82;;
55330;SDS011;58851;42.984;20.336;2022-08-20T05:38:05;23.38;;;13.38;;
55330;SDS011;58851;42.984;20.336;2022-08-20T05:40:33;27.98;;;13.27;;
55330;SDS011;58851;42.984;20.336;2022-08-20T05:42:59;25.05;;;12.95;;
55330;SDS011;58851;42.984;20.336;2022-08-20T05:45:25;29.40;;;15.70;;
55330;SDS011;58851;42.984;20.336;2022-08-20T05:47:54;23.50;;;13.32;;
55330;SDS011;58851;42.984;20.336;2022-08-20T05:50:20;26.70;;;15.18;;
55330;SDS011;58851;42.984;20.336;2022-08-20T05:52:45;25.35;;;15.80;;
55330;SDS011;58851;42.984;20.336;2022-08-20T05:55:11;28.75;;;14.85;;
55330;SDS011;58851;42.984;20.336;2022-08-20T05:57:38;22.83;;;13.35;;
55330;SDS011;58851;42.984;20.336;2022-08-20T06:00:06;21.95;;;12.15;;
55330;SDS011;58851;42.984;20.336;2022-08-20T06:02:37;36.03;;;13.25;;
55330;SDS011;58851;42.984;20.336;2022-08-20T06:05:22;24.35;;;13.10;;
55330;SDS011;58851;42.984;20.336;2022-08-20T06:07:48;25.02;;;13.85;;
55330;SDS011;58851;42.984;20.336;2022-08-20T06:10:17;24.38;;;14.57;;
55330;SDS011;58851;42.984;20.336;2022-08-20T06:12:43;26.10;;;14.52;;
55330;SDS011;58851;42.984;20.336;2022-08-20T06:15:12;27.92;;;15.55;;
55330;SDS011;58851;42.984;20.336;2022-08-20T06:17:38;25.98;;;13.48;;
55330;SDS011;58851;42.984;20.336;2022-08-20T06:20:05;26.92;;;13.02;;
55330;SDS011;58851;42.984;20.336;2022-08-20T06:22:33;29.40;;;12.88;;
55330;SDS011;58851;42.984;20.336;2022-08-20T06:24:59;23.35;;;14.30;;
55330;SDS011;58851;42.984;20.336;2022-08-20T06:27:26;24.98;;;13.65;;
55330;SDS011;58851;42.984;20.336;2022-08-20T06:29:52;22.77;;;12.25;;
55330;SDS011;58851;42.984;20.336;2022-08-20T06:32:19;24.33;;;11.18;;
55330;SDS011;58851;42.984;20.336;2022-08-20T06:34:47;26.70;;;13.13;;
55330;SDS011;58851;42.984;20.336;2022-08-20T06:37:17;24.48;;;12.52;;
55330;SDS011;58851;42.984;20.336;2022-08-20T06:39:45;25.95;;;12.38;;
55330;SDS011;58851;42.984;20.336;2022-08-20T06:42:10;24.67;;;12.07;;
55330;SDS011;58851;42.984;20.336;2022-08-20T06:44:37;24.20;;;12.90;;
55330;SDS011;58851;42.984;20.336;2022-08-20T06:47:03;22.38;;;12.48;;
55330;SDS011;58851;42.984;20.336;2022-08-20T06:49:30;21.08;;;13.05;;
55330;SDS011;58851;42.984;20.336;2022-08-20T06:51:59;26.67;;;14.38;;
55330;SDS011;58851;42.984;20.336;2022-08-20T06:54:25;20.98;;;12.68;;
55330;SDS011;58851;42.984;20.336;2022-08-20T06:56:50;19.77;;;12.35;;
55330;SDS011;58851;42.984;20.336;2022-08-20T06:59:18;19.52;;;12.55;;
55330;SDS011;58851;42.984;20.336;2022-08-20T07:01:45;22.42;;;11.45;;
55330;SDS011;58851;42.984;20.336;2022-08-20T07:04:13;31.70;;;14.05;;
55330;SDS011;58851;42.984;20.336;2022-08-20T07:06:40;27.30;;;13.07;;
55330;SDS011;58851;42.984;20.336;2022-08-20T07:09:07;28.27;;;14.43;;
55330;SDS011;58851;42.984;20.336;2022-08-20T07:11:33;44.40;;;14.65;;
55330;SDS011;58851;42.984;20.336;2022-08-20T07:13:59;29.58;;;11.75;;
55330;SDS011;58851;42.984;20.336;2022-08-20T07:16:29;23.63;;;11.80;;
55330;SDS011;58851;42.984;20.336;2022-08-20T07:18:55;27.05;;;12.95;;
55330;SDS011;58851;42.984;20.336;2022-08-20T07:21:22;24.40;;;12.75;;
55330;SDS011;58851;42.984;20.336;2022-08-20T07:23:48;26.65;;;11.60;;
55330;SDS011;58851;42.984;20.336;2022-08-20T07:26:14;25.17;;;10.82;;
55330;SDS011;58851;42.984;20.336;2022-08-20T07:28:41;16.58;;;11.00;;
55330;SDS011;58851;42.984;20.336;2022-08-20T07:31:07;20.70;;;11.55;;
55330;SDS011;58851;42.984;20.336;2022-08-20T07:33:51;23.90;;;10.82;;
55330;SDS011;58851;42.984;20.336;2022-08-20T07:36:17;23.52;;;10.85;;
55330;SDS011;58851;42.984;20.336;2022-08-20T07:38:43;25.33;;;10.82;;
55330;SDS011;58851;42.984;20.336;2022-08-20T07:41:16;16.83;;;11.20;;
55330;SDS011;58851;42.984;20.336;2022-08-20T07:43:43;21.70;;;11.00;;
55330;SDS011;58851;42.984;20.336;2022-08-20T07:46:16;28.42;;;11.77;;
55330;SDS011;58851;42.984;20.336;2022-08-20T07:48:44;24.75;;;11.85;;
55330;SDS011;58851;42.984;20.336;2022-08-20T07:51:11;22.38;;;11.35;;
55330;SDS011;58851;42.984;20.336;2022-08-20T07:53:39;38.28;;;23.80;;
55330;SDS011;58851;42.984;20.336;2022-08-20T07:56:07;25.10;;;11.82;;
55330;SDS011;58851;42.984;20.336;2022-08-20T07:58:35;26.70;;;15.77;;
55330;SDS011;58851;42.984;20.336;2022-08-20T08:01:05;19.33;;;11.38;;
55330;SDS011;58851;42.984;20.336;2022-08-20T08:03:31;24.73;;;12.20;;
55330;SDS011;58851;42.984;20.336;2022-08-20T08:05:58;40.42;;;30.17;;
55330;SDS011;58851;42.984;20.336;2022-08-20T08:08:25;24.33;;;13.73;;
55330;SDS011;58851;42.984;20.336;2022-08-20T08:10:55;23.25;;;14.88;;
55330;SDS011;58851;42.984;20.336;2022-08-20T08:13:23;24.80;;;12.85;;
55330;SDS011;58851;42.984;20.336;2022-08-20T08:15:51;22.60;;;13.20;;
55330;SDS011;58851;42.984;20.336;2022-08-20T08:18:25;26.70;;;15.65;;
55330;SDS011;58851;42.984;20.336;2022-08-20T08:20:54;34.20;;;17.45;;
55330;SDS011;58851;42.984;20.336;2022-08-20T08:23:22;37.28;;;19.38;;
55330;SDS011;58851;42.984;20.336;2022-08-20T08:25:48;36.85;;;16.35;;
55330;SDS011;58851;42.984;20.336;2022-08-20T08:28:18;31.95;;;16.63;;
55330;SDS011;58851;42.984;20.336;2022-08-20T08:30:45;34.70;;;20.63;;
55330;SDS011;58851;42.984;20.336;2022-08-20T08:33:19;44.00;;;17.90;;
55330;SDS011;58851;42.984;20.336;2022-08-20T08:35:56;39.97;;;17.75;;
55330;SDS011;58851;42.984;20.336;2022-08-20T08:38:30;49.22;;;21.95;;
55330;SDS011;58851;42.984;20.336;2022-08-20T08:41:02;33.90;;;16.00;;
55330;SDS011;58851;42.984;20.336;2022-08-20T08:43:36;33.78;;;15.35;;
55330;SDS011;58851;42.984;20.336;2022-08-20T08:46:04;23.48;;;13.70;;
55330;SDS011;58851;42.984;20.336;2022-08-20T08:48:34;25.88;;;13.43;;
55330;SDS011;58851;42.984;20.336;2022-08-20T08:51:03;25.77;;;12.20;;
55330;SDS011;58851;42.984;20.336;2022-08-20T08:53:36;28.73;;;11.30;;
55330;SDS011;58851;42.984;20.336;2022-08-20T08:56:06;18.45;;;10.80;;
55330;SDS011;58851;42.984;20.336;2022-08-20T08:58:33;30.52;;;11.07;;
55330;SDS011;58851;42.984;20.336;2022-08-20T09:01:07;27.83;;;11.20;;
55330;SDS011;58851;42.984;20.336;2022-08-20T09:03:37;21.58;;;10.90;;
55330;SDS011;58851;42.984;20.336;2022-08-20T09:06:04;25.15;;;10.85;;
55330;SDS011;58851;42.984;20.336;2022-08-20T09:08:40;27.38;;;10.35;;
55330;SDS011;58851;42.984;20.336;2022-08-20T09:11:13;27.55;;;11.60;;
55330;SDS011;58851;42.984;20.336;2022-08-20T09:13:40;21.38;;;9.93;;
55330;SDS011;58851;42.984;20.336;2022-08-20T09:16:07;21.63;;;9.25;;
55330;SDS011;58851;42.984;20.336;2022-08-20T09:18:34;25.58;;;9.05;;
55330;SDS011;58851;42.984;20.336;2022-08-20T09:21:00;29.92;;;9.98;;
55330;SDS011;58851;42.984;20.336;2022-08-20T09:23:26;27.83;;;10.38;;
55330;SDS011;58851;42.984;20.336;2022-08-20T09:25:51;20.40;;;8.75;;
55330;SDS011;58851;42.984;20.336;2022-08-20T09:28:17;22.65;;;9.23;;
55330;SDS011;58851;42.984;20.336;2022-08-20T09:30:43;29.15;;;9.68;;
55330;SDS011;58851;42.984;20.336;2022-08-20T09:33:09;31.00;;;12.63;;
55330;SDS011;58851;42.984;20.336;2022-08-20T09:35:35;24.20;;;10.48;;
55330;SDS011;58851;42.984;20.336;2022-08-20T09:38:02;21.05;;;9.27;;
55330;SDS011;58851;42.984;20.336;2022-08-20T09:40:27;27.98;;;10.18;;
55330;SDS011;58851;42.984;20.336;2022-08-20T09:42:53;27.90;;;10.73;;
55330;SDS011;58851;42.984;20.336;2022-08-20T09:57:10;33.30;;;14.98;;
55330;SDS011;58851;42.984;20.336;2022-08-20T09:59:36;29.13;;;8.82;;
55330;SDS011;58851;42.984;20.336;2022-08-20T10:02:03;24.88;;;10.27;;
55330;SDS011;58851;42.984;20.336;2022-08-20T10:04:29;26.98;;;12.80;;
55330;SDS011;58851;42.984;20.336;2022-08-20T10:06:55;22.45;;;10.80;;
55330;SDS011;58851;42.984;20.336;2022-08-20T10:09:21;18.85;;;6.53;;
55330;SDS011;58851;42.984;20.336;2022-08-20T10:11:47;16.55;;;7.05;;
55330;SDS011;58851;42.984;20.336;2022-08-20T10:14:13;9.15;;;2.92;;
55330;SDS011;58851;42.984;20.336;2022-08-20T10:16:39;7.70;;;3.05;;
55330;SDS011;58851;42.984;20.336;2022-08-20T10:19:05;8.93;;;3.10;;
55330;SDS011;58851;42.984;20.336;2022-08-20T10:21:32;11.70;;;6.20;;
55330;SDS011;58851;42.984;20.336;2022-08-20T10:23:58;17.27;;;4.95;;
55330;SDS011;58851;42.984;20.336;2022-08-20T10:26:24;17.30;;;5.82;;
55330;SDS011;58851;42.984;20.336;2022-08-20T10:28:50;14.02;;;6.75;;
55330;SDS011;58851;42.984;20.336;2022-08-20T10:31:16;14.70;;;6.28;;
55330;SDS011;58851;42.984;20.336;2022-08-20T10:33:42;16.27;;;6.53;;
55330;SDS011;58851;42.984;20.336;2022-08-20T10:36:12;14.23;;;5.30;;
55330;SDS011;58851;42.984;20.336;2022-08-20T10:38:41;17.90;;;9.98;;
55330;SDS011;58851;42.984;20.336;2022-08-20T10:41:08;20.23;;;10.18;;
55330;SDS011;58851;42.984;20.336;2022-08-20T10:43:34;15.85;;;7.68;;
55330;SDS011;58851;42.984;20.336;2022-08-20T10:46:00;9.77;;;5.95;;
55330;SDS011;58851;42.984;20.336;2022-08-20T10:48:27;16.42;;;6.07;;
55330;SDS011;58851;42.984;20.336;2022-08-20T10:50:52;22.67;;;9.07;;
55330;SDS011;58851;42.984;20.336;2022-08-20T10:53:18;12.75;;;5.35;;
55330;SDS011;58851;42.984;20.336;2022-08-20T10:55:44;18.63;;;6.97;;
55330;SDS011;58851;42.984;20.336;2022-08-20T10:58:10;16.23;;;8.25;;
55330;SDS011;58851;42.984;20.336;2022-08-20T11:00:37;20.52;;;9.82;;
55330;SDS011;58851;42.984;20.336;2022-08-20T11:03:04;26.98;;;12.82;;
55330;SDS011;58851;42.984;20.336;2022-08-20T11:05:29;33.10;;;22.48;;
55330;SDS011;58851;42.984;20.336;2022-08-20T11:07:55;19.30;;;8.18;;
55330;SDS011;58851;42.984;20.336;2022-08-20T11:10:22;23.50;;;11.38;;
55330;SDS011;58851;42.984;20.336;2022-08-20T11:12:50;19.00;;;8.10;;
55330;SDS011;58851;42.984;20.336;2022-08-20T11:15:16;18.70;;;6.80;;
55330;SDS011;58851;42.984;20.336;2022-08-20T11:17:42;48.00;;;33.83;;
55330;SDS011;58851;42.984;20.336;2022-08-20T11:20:09;46.78;;;32.20;;
55330;SDS011;58851;42.984;20.336;2022-08-20T11:22:36;29.23;;;17.48;;
55330;SDS011;58851;42.984;20.336;2022-08-20T11:25:03;17.90;;;9.60;;
55330;SDS011;58851;42.984;20.336;2022-08-20T11:27:34;17.88;;;8.80;;
55330;SDS011;58851;42.984;20.336;2022-08-20T11:30:03;18.88;;;8.60;;
55330;SDS011;58851;42.984;20.336;2022-08-20T11:32:30;21.60;;;10.05;;
55330;SDS011;58851;42.984;20.336;2022-08-20T11:34:56;15.38;;;9.15;;
55330;SDS011;58851;42.984;20.336;2022-08-20T11:37:22;25.83;;;11.68;;
55330;SDS011;58851;42.984;20.336;2022-08-20T11:39:50;13.40;;;6.60;;
55330;SDS011;58851;42.984;20.336;2022-08-20T11:42:16;20.38;;;7.40;;
55330;SDS011;58851;42.984;20.336;2022-08-20T11:44:42;18.10;;;9.68;;
55330;SDS011;58851;42.984;20.336;2022-08-20T11:47:08;34.50;;;13.93;;
55330;SDS011;58851;42.984;20.336;2022-08-20T11:49:44;23.58;;;12.30;;
55330;SDS011;58851;42.984;20.336;2022-08-20T11:52:10;27.15;;;11.32;;
55330;SDS011;58851;42.984;20.336;2022-08-20T11:54:35;23.20;;;9.02;;
55330;SDS011;58851;42.984;20.336;2022-08-20T11:57:04;31.27;;;12.02;;
55330;SDS011;58851;42.984;20.336;2022-08-20T11:59:30;34.15;;;11.20;;
55330;SDS011;58851;42.984;20.336;2022-08-20T12:01:56;22.30;;;10.15;;
55330;SDS011;58851;42.984;20.336;2022-08-20T12:04:23;20.30;;;8.32;;
55330;SDS011;58851;42.984;20.336;2022-08-20T12:06:48;27.30;;;14.27;;
55330;SDS011;58851;42.984;20.336;2022-08-20T12:09:14;28.75;;;11.25;;
55330;SDS011;58851;42.984;20.336;2022-08-20T12:11:41;23.45;;;11.00;;
55330;SDS011;58851;42.984;20.336;2022-08-20T12:14:07;26.70;;;10.90;;
55330;SDS011;58851;42.984;20.336;2022-08-20T12:16:33;16.98;;;8.35;;
55330;SDS011;58851;42.984;20.336;2022-08-20T12:18:59;17.55;;;9.57;;
55330;SDS011;58851;42.984;20.336;2022-08-20T12:21:25;22.13;;;12.05;;
55330;SDS011;58851;42.984;20.336;2022-08-20T12:23:51;23.48;;;11.43;;
55330;SDS011;58851;42.984;20.336;2022-08-20T12:26:16;19.45;;;9.50;;
55330;SDS011;58851;42.984;20.336;2022-08-20T12:28:42;23.15;;;10.05;;
55330;SDS011;58851;42.984;20.336;2022-08-20T12:31:08;33.95;;;16.13;;
55330;SDS011;58851;42.984;20.336;2022-08-20T12:33:34;39.00;;;17.70;;
55330;SDS011;58851;42.984;20.336;2022-08-20T12:36:00;40.50;;;20.73;;
55330;SDS011;58851;42.984;20.336;2022-08-20T12:38:26;56.65;;;26.17;;
55330;SDS011;58851;42.984;20.336;2022-08-20T12:40:51;69.35;;;33.50;;
55330;SDS011;58851;42.984;20.336;2022-08-20T12:43:17;58.95;;;30.05;;
55330;SDS011;58851;42.984;20.336;2022-08-20T12:45:43;66.68;;;31.88;;
55330;SDS011;58851;42.984;20.336;2022-08-20T12:48:11;57.75;;;28.00;;
55330;SDS011;58851;42.984;20.336;2022-08-20T12:50:39;56.00;;;26.75;;
55330;SDS011;58851;42.984;20.336;2022-08-20T12:53:06;49.10;;;22.73;;
55330;SDS011;58851;42.984;20.336;2022-08-20T12:55:32;49.55;;;21.92;;
55330;SDS011;58851;42.984;20.336;2022-08-20T12:58:00;61.85;;;26.05;;
55330;SDS011;58851;42.984;20.336;2022-08-20T13:00:29;42.35;;;21.02;;
55330;SDS011;58851;42.984;20.336;2022-08-20T13:02:57;54.67;;;27.20;;
55330;SDS011;58851;42.984;20.336;2022-08-20T13:05:25;57.80;;;28.42;;
55330;SDS011;58851;42.984;20.336;2022-08-20T13:07:51;66.50;;;33.05;;
55330;SDS011;58851;42.984;20.336;2022-08-20T13:10:20;56.28;;;30.08;;
55330;SDS011;58851;42.984;20.336;2022-08-20T13:12:50;70.90;;;35.33;;
55330;SDS011;58851;42.984;20.336;2022-08-20T13:15:19;65.82;;;33.47;;
55330;SDS011;58851;42.984;20.336;2022-08-20T13:17:58;58.25;;;30.15;;
55330;SDS011;58851;42.984;20.336;2022-08-20T13:20:33;68.57;;;31.15;;
55330;SDS011;58851;42.984;20.336;2022-08-20T13:23:00;55.47;;;28.85;;
55330;SDS011;58851;42.984;20.336;2022-08-20T13:25:28;68.90;;;33.60;;
55330;SDS011;58851;42.984;20.336;2022-08-20T13:27:55;99.68;;;45.60;;
55330;SDS011;58851;42.984;20.336;2022-08-20T13:30:26;86.57;;;37.65;;
55330;SDS011;58851;42.984;20.336;2022-08-20T13:32:52;64.07;;;32.78;;
55330;SDS011;58851;42.984;20.336;2022-08-20T13:35:17;89.38;;;42.28;;
55330;SDS011;58851;42.984;20.336;2022-08-20T13:37:44;106.50;;;47.40;;
55330;SDS011;58851;42.984;20.336;2022-08-20T13:40:09;88.18;;;44.00;;
55330;SDS011;58851;42.984;20.336;2022-08-20T13:42:36;87.95;;;38.17;;
55330;SDS011;58851;42.984;20.336;2022-08-20T13:45:02;79.93;;;36.40;;
55330;SDS011;58851;42.984;20.336;2022-08-20T13:47:34;66.57;;;29.98;;
55330;SDS011;58851;42.984;20.336;2022-08-20T13:55:02;65.30;;;31.58;;
55330;SDS011;58851;42.984;20.336;2022-08-20T13:57:29;75.10;;;35.08;;
55330;SDS011;58851;42.984;20.336;2022-08-20T13:59:56;83.93;;;35.90;;
55330;SDS011;58851;42.984;20.336;2022-08-20T14:02:22;60.45;;;31.42;;
55330;SDS011;58851;42.984;20.336;2022-08-20T14:04:50;71.47;;;34.20;;
55330;SDS011;58851;42.984;20.336;2022-08-20T14:07:23;70.40;;;32.42;;
55330;SDS011;58851;42.984;20.336;2022-08-20T14:09:56;64.18;;;34.00;;
55330;SDS011;58851;42.984;20.336;2022-08-20T14:12:23;67.40;;;33.67;;
55330;SDS011;58851;42.984;20.336;2022-08-20T14:14:50;63.17;;;32.38;;
55330;SDS011;58851;42.984;20.336;2022-08-20T14:19:49;53.13;;;26.92;;
55330;SDS011;58851;42.984;20.336;2022-08-20T14:22:16;48.58;;;22.45;;
55330;SDS011;58851;42.984;20.336;2022-08-20T14:24:45;55.70;;;23.83;;
55330;SDS011;58851;42.984;20.336;2022-08-20T14:27:13;36.78;;;20.77;;
55330;SDS011;58851;42.984;20.336;2022-08-20T14:29:42;43.70;;;22.35;;
55330;SDS011;58851;42.984;20.336;2022-08-20T14:32:09;47.83;;;24.75;;
55330;SDS011;58851;42.984;20.336;2022-08-20T14:34:35;54.33;;;25.85;;
55330;SDS011;58851;42.984;20.336;2022-08-20T14:37:16;40.88;;;23.95;;
55330;SDS011;58851;42.984;20.336;2022-08-20T14:39:44;43.50;;;20.75;;
55330;SDS011;58851;42.984;20.336;2022-08-20T14:42:11;59.70;;;31.88;;
55330;SDS011;58851;42.984;20.336;2022-08-20T14:44:37;63.95;;;38.42;;